createdAt,value
2018-01-03T00:01:20.866Z,97184
2018-01-03T00:03:47.560Z,97180
2018-01-03T00:06:14.979Z,97194
2018-01-03T00:08:41.739Z,97187
2018-01-03T00:11:09.382Z,97189
2018-01-03T00:13:36.076Z,97195
2018-01-03T00:16:03.486Z,97186
2018-01-03T00:18:30.150Z,97185
2018-01-03T00:20:56.812Z,97182
2018-01-03T00:23:24.198Z,97177
2018-01-03T00:25:50.902Z,97173
2018-01-03T00:28:17.608Z,97176
2018-01-03T00:30:44.244Z,97175
2018-01-03T00:33:10.919Z,97179
2018-01-03T00:35:37.585Z,97172
2018-01-03T00:38:05.036Z,97168
2018-01-03T00:40:31.692Z,97170
2018-01-03T00:42:59.095Z,97173
2018-01-03T00:45:25.745Z,97171
2018-01-03T00:47:52.409Z,97165
2018-01-03T00:50:19.082Z,97159
2018-01-03T00:52:46.468Z,97163
2018-01-03T00:55:13.907Z,97163
2018-01-03T00:57:41.345Z,97163
2018-01-03T01:00:08.039Z,97163
2018-01-03T01:02:34.699Z,97164
2018-01-03T01:05:01.370Z,97168
2018-01-03T01:07:28.028Z,97178
2018-01-03T01:09:54.712Z,97181
2018-01-03T01:12:21.396Z,97177
2018-01-03T01:14:48.080Z,97175
2018-01-03T01:17:14.872Z,97178
2018-01-03T01:19:41.527Z,97182
2018-01-03T01:22:08.169Z,97175
2018-01-03T01:24:35.582Z,97179
2018-01-03T01:27:03.152Z,97175
2018-01-03T01:29:29.789Z,97176
2018-01-03T01:31:56.441Z,97167
2018-01-03T01:34:24.088Z,97172
2018-01-03T01:36:50.744Z,97174
2018-01-03T01:39:17.442Z,97161
2018-01-03T01:41:44.832Z,97164
2018-01-03T01:44:11.508Z,97161
2018-01-03T01:46:38.148Z,97158
2018-01-03T01:49:06.856Z,97162
2018-01-03T01:51:33.536Z,97153
2018-01-03T01:54:00.909Z,97141
2018-01-03T01:56:27.560Z,97144
2018-01-03T01:58:54.239Z,97150
2018-01-03T02:01:20.906Z,97149
2018-01-03T02:03:48.290Z,97132
2018-01-03T02:06:14.968Z,97135
2018-01-03T02:08:41.652Z,97132
2018-01-03T02:11:09.046Z,97129
2018-01-03T02:13:35.695Z,97123
2018-01-03T02:16:02.355Z,97119
2018-01-03T02:18:28.996Z,97119
2018-01-03T02:20:55.691Z,97109
2018-01-03T02:23:23.078Z,97097
2018-01-03T02:25:49.756Z,97075
2018-01-03T02:28:16.405Z,97070
2018-01-03T02:30:43.067Z,97061
2018-01-03T02:33:09.919Z,97067
2018-01-03T02:35:37.344Z,97077
2018-01-03T02:38:04.095Z,97075
2018-01-03T02:40:30.756Z,97071
2018-01-03T02:42:58.172Z,97060
2018-01-03T02:45:25.105Z,97058
2018-01-03T02:47:51.752Z,97061
2018-01-03T02:50:18.422Z,97052
2018-01-03T02:52:45.079Z,97053
2018-01-03T02:55:11.725Z,97053
2018-01-03T02:57:38.395Z,97044
2018-01-03T03:00:05.063Z,97030
2018-01-03T03:02:31.728Z,97026
2018-01-03T03:04:59.150Z,97027
2018-01-03T03:07:25.834Z,97024
2018-01-03T03:09:52.492Z,97024
2018-01-03T03:12:19.166Z,97009
2018-01-03T03:14:46.592Z,97009
2018-01-03T03:17:13.255Z,97008
2018-01-03T03:19:40.637Z,97000
2018-01-03T03:22:07.861Z,97001
2018-01-03T03:24:34.529Z,96996
2018-01-03T03:27:01.930Z,96989
2018-01-03T03:29:28.588Z,96979
2018-01-03T03:31:55.260Z,96973
2018-01-03T03:34:22.664Z,96970
2018-01-03T03:36:49.322Z,96957
2018-01-03T03:39:16.008Z,96959
2018-01-03T03:41:43.428Z,96960
2018-01-03T03:44:10.076Z,96953
2018-01-03T03:46:36.722Z,96946
2018-01-03T03:49:03.426Z,96935
2018-01-03T03:51:30.060Z,96929
2018-01-03T03:53:56.744Z,96925
2018-01-03T03:56:24.158Z,96919
2018-01-03T03:58:50.796Z,96919
2018-01-03T04:01:18.182Z,96915
2018-01-03T04:03:44.869Z,96908
2018-01-03T04:06:11.529Z,96912
2018-01-03T04:08:38.966Z,96908
2018-01-03T04:11:05.643Z,96913
2018-01-03T04:13:32.305Z,96906
2018-01-03T04:15:58.960Z,96893
2018-01-03T04:18:25.641Z,96886
2018-01-03T04:20:52.311Z,96887
2018-01-03T04:23:18.968Z,96896
2018-01-03T04:25:45.640Z,96897
2018-01-03T04:28:12.286Z,96892
2018-01-03T04:30:38.961Z,96899
2018-01-03T04:33:06.547Z,96896
2018-01-03T04:35:34.252Z,96901
2018-01-03T04:38:00.920Z,96890
2018-01-03T04:40:27.600Z,96882
2018-01-03T04:42:54.980Z,96877
2018-01-03T04:45:21.645Z,96879
2018-01-03T04:47:48.310Z,96872
2018-01-03T04:50:15.017Z,96878
2018-01-03T04:52:41.653Z,96879
2018-01-03T04:55:08.309Z,96877
2018-01-03T04:57:35.125Z,96880
2018-01-03T05:00:01.948Z,96875
2018-01-03T05:02:29.389Z,96865
2018-01-03T05:04:56.200Z,96859
2018-01-03T05:07:23.025Z,96850
2018-01-03T05:09:49.908Z,96845
2018-01-03T05:12:16.681Z,96849
2018-01-03T05:14:43.393Z,96840
2018-01-03T05:17:10.328Z,96831
2018-01-03T05:19:37.768Z,96828
2018-01-03T05:22:04.628Z,96827
2018-01-03T05:24:31.433Z,96832
2018-01-03T05:26:58.170Z,96829
2018-01-03T05:29:24.879Z,96825
2018-01-03T05:31:51.634Z,96826
2018-01-03T05:34:18.284Z,96814
2018-01-03T05:36:44.989Z,96813
2018-01-03T05:39:11.637Z,96803
2018-01-03T05:41:38.308Z,96790
2018-01-03T05:44:04.979Z,96777
2018-01-03T05:46:31.612Z,96762
2018-01-03T05:48:58.294Z,96762
2018-01-03T05:51:25.007Z,96753
2018-01-03T05:53:52.394Z,96742
2018-01-03T05:56:19.034Z,96735
2018-01-03T05:58:45.700Z,96737
2018-01-03T06:01:12.353Z,96743
2018-01-03T06:03:39.673Z,96742
2018-01-03T06:06:06.346Z,96728
2018-01-03T06:08:32.983Z,96720
2018-01-03T06:10:59.777Z,96724
2018-01-03T06:13:26.443Z,96716
2018-01-03T06:15:53.859Z,96710
2018-01-03T06:18:20.556Z,96688
2018-01-03T06:20:47.213Z,96671
2018-01-03T06:23:13.870Z,96675
2018-01-03T06:25:40.546Z,96671
2018-01-03T06:28:07.203Z,96656
2018-01-03T06:30:34.633Z,96654
2018-01-03T06:33:02.869Z,96665
2018-01-03T06:35:29.553Z,96676
2018-01-03T06:37:56.229Z,96671
2018-01-03T06:40:23.653Z,96656
2018-01-03T06:42:51.220Z,96675
2018-01-03T06:45:17.909Z,96669
2018-01-03T06:47:44.580Z,96672
2018-01-03T06:50:12.102Z,96669
2018-01-03T06:52:39.508Z,96658
2018-01-03T06:55:06.199Z,96663
2018-01-03T06:57:35.266Z,96640
2018-01-03T07:00:02.029Z,96622
2018-01-03T07:02:28.659Z,96603
2018-01-03T07:04:55.286Z,96567
2018-01-03T07:07:22.882Z,96574
2018-01-03T07:09:49.596Z,96611
2018-01-03T07:12:16.249Z,96606
2018-01-03T07:14:42.937Z,96605
2018-01-03T07:17:10.364Z,96574
2018-01-03T07:19:37.056Z,96555
2018-01-03T07:22:03.700Z,96531
2018-01-03T07:24:30.366Z,96513
2018-01-03T07:26:57.028Z,96512
2018-01-03T07:29:23.793Z,96529
2018-01-03T07:31:51.214Z,96524
2018-01-03T07:34:17.878Z,96508
2018-01-03T07:36:44.549Z,96488
2018-01-03T07:39:11.229Z,96460
2018-01-03T07:41:39.003Z,96457
2018-01-03T07:44:05.669Z,96465
2018-01-03T07:46:32.331Z,96483
2018-01-03T07:48:59.745Z,96457
2018-01-03T07:51:26.399Z,96441
2018-01-03T07:53:53.841Z,96448
2018-01-03T07:56:20.502Z,96434
2018-01-03T07:58:47.134Z,96428
2018-01-03T08:01:13.820Z,96426
2018-01-03T08:03:40.474Z,96416
2018-01-03T08:06:07.868Z,96379
2018-01-03T08:08:34.575Z,96365
2018-01-03T08:11:01.976Z,96354
2018-01-03T08:13:28.652Z,96342
2018-01-03T08:15:55.338Z,96349
2018-01-03T08:18:21.984Z,96354
2018-01-03T08:20:48.621Z,96373
2018-01-03T08:23:15.356Z,96395
2018-01-03T08:25:42.758Z,96368
2018-01-03T08:28:09.413Z,96346
2018-01-03T08:30:36.097Z,96333
2018-01-03T08:33:02.756Z,96323
2018-01-03T08:35:29.451Z,96321
2018-01-03T08:37:56.154Z,96331
2018-01-03T08:40:22.809Z,96333
2018-01-03T08:42:49.501Z,96312
2018-01-03T08:45:16.886Z,96299
2018-01-03T08:47:43.589Z,96303
2018-01-03T08:50:10.236Z,96293
2018-01-03T08:52:36.900Z,96261
2018-01-03T08:55:04.389Z,96255
2018-01-03T08:57:31.047Z,96243
2018-01-03T08:59:57.684Z,96195
2018-01-03T09:02:24.345Z,96163
2018-01-03T09:04:51.002Z,96169
2018-01-03T09:07:17.700Z,96148
2018-01-03T09:09:44.437Z,96170
2018-01-03T09:12:12.434Z,96165
2018-01-03T09:14:40.009Z,96180
2018-01-03T09:17:06.648Z,96171
2018-01-03T09:19:33.330Z,96181
2018-01-03T09:22:00.701Z,96147
2018-01-03T09:24:28.098Z,96122
2018-01-03T09:26:54.796Z,96140
2018-01-03T09:29:22.185Z,96161
2018-01-03T09:31:48.845Z,96145
2018-01-03T09:34:15.533Z,96126
2018-01-03T09:36:42.169Z,96135
2018-01-03T09:39:08.831Z,96124
2018-01-03T09:41:36.220Z,96138
2018-01-03T09:44:02.959Z,96123
2018-01-03T09:46:29.586Z,96104
2018-01-03T09:48:56.992Z,96077
2018-01-03T09:51:23.653Z,96054
2018-01-03T09:53:50.428Z,96050
2018-01-03T09:56:17.083Z,96030
2018-01-03T09:58:43.723Z,95998
2018-01-03T10:01:11.285Z,95997
2018-01-03T10:03:37.926Z,96001
2018-01-03T10:06:04.620Z,96001
2018-01-03T10:08:31.291Z,96029
2018-01-03T10:10:59.665Z,96042
2018-01-03T10:13:26.340Z,96024
2018-01-03T10:15:53.001Z,95997
2018-01-03T10:18:19.694Z,95983
2018-01-03T10:20:46.398Z,95973
2018-01-03T10:23:13.044Z,95946
2018-01-03T10:25:39.757Z,95904
2018-01-03T10:28:06.445Z,95919
2018-01-03T10:30:33.092Z,95936
2018-01-03T10:32:59.764Z,95924
2018-01-03T10:35:27.278Z,95903
2018-01-03T10:37:54.122Z,95901
2018-01-03T10:40:20.784Z,95897
2018-01-03T10:42:47.494Z,95889
2018-01-03T10:45:14.158Z,95866
2018-01-03T10:47:40.813Z,95839
2018-01-03T10:50:07.488Z,95843
2018-01-03T10:52:34.878Z,95825
2018-01-03T10:55:01.542Z,95808
2018-01-03T10:57:28.241Z,95823
2018-01-03T10:59:55.627Z,95794
2018-01-03T11:02:23.299Z,95775
2018-01-03T11:04:50.008Z,95771
2018-01-03T11:07:17.408Z,95765
2018-01-03T11:09:44.097Z,95727
2018-01-03T11:12:11.506Z,95715
2018-01-03T11:14:38.169Z,95723
2018-01-03T11:17:04.872Z,95708
2018-01-03T11:19:31.524Z,95703
2018-01-03T11:21:58.238Z,95691
2018-01-03T11:24:25.670Z,95666
2018-01-03T11:26:52.434Z,95640
2018-01-03T11:29:19.841Z,95607
2018-01-03T11:31:46.528Z,95611
2018-01-03T11:34:14.017Z,95610
2018-01-03T11:36:41.732Z,95603
2018-01-03T11:39:09.147Z,95597
2018-01-03T11:41:35.841Z,95596
2018-01-03T11:44:02.509Z,95609
2018-01-03T11:46:29.940Z,95589
2018-01-03T11:48:56.863Z,95564
2018-01-03T11:51:23.513Z,95549
2018-01-03T11:53:50.179Z,95515
2018-01-03T11:56:16.921Z,95524
2018-01-03T11:58:43.579Z,95539
2018-01-03T12:01:10.290Z,95535
2018-01-03T12:03:37.013Z,95526
2018-01-03T12:06:04.435Z,95515
2018-01-03T12:08:31.853Z,95528
2018-01-03T12:10:58.530Z,95544
2018-01-03T12:13:25.194Z,95551
2018-01-03T12:15:51.902Z,95544
2018-01-03T12:18:18.622Z,95563
2018-01-03T12:20:45.278Z,95569
2018-01-03T12:23:11.970Z,95571
2018-01-03T12:25:39.390Z,95584
2018-01-03T12:28:06.084Z,95606
2018-01-03T12:30:32.770Z,95602
2018-01-03T12:32:59.510Z,95627
2018-01-03T12:35:26.181Z,95640
2018-01-03T12:37:53.808Z,95650
2018-01-03T12:40:20.494Z,95663
2018-01-03T12:42:47.269Z,95680
2018-01-03T12:45:13.971Z,95683
2018-01-03T12:47:40.621Z,95703
2018-01-03T12:50:07.319Z,95721
2018-01-03T12:52:34.023Z,95718
2018-01-03T12:55:01.482Z,95741
2018-01-03T12:57:28.897Z,95758
2018-01-03T12:59:55.571Z,95748
2018-01-03T13:02:22.988Z,95750
2018-01-03T13:04:49.649Z,95752
2018-01-03T13:07:16.308Z,95782
2018-01-03T13:09:42.948Z,95769
2018-01-03T13:12:09.640Z,95782
2018-01-03T13:14:36.343Z,95808
2018-01-03T13:17:03.021Z,95800
2018-01-03T13:19:29.708Z,95815
2018-01-03T13:21:56.448Z,95806
2018-01-03T13:24:23.840Z,95830
2018-01-03T13:26:51.889Z,95817
2018-01-03T13:29:18.597Z,95834
2018-01-03T13:31:45.256Z,95842
2018-01-03T13:34:11.911Z,95817
2018-01-03T13:36:38.609Z,95800
2018-01-03T13:39:05.253Z,95766
2018-01-03T13:41:31.922Z,95778
2018-01-03T13:43:58.645Z,95775
2018-01-03T13:46:25.632Z,95768
2018-01-03T13:48:52.264Z,95780
2018-01-03T13:51:18.939Z,95780
2018-01-03T13:53:46.449Z,95784
2018-01-03T13:56:13.121Z,95783
2018-01-03T13:58:39.792Z,95772
2018-01-03T14:01:06.523Z,95772
2018-01-03T14:03:33.204Z,95746
2018-01-03T14:06:00.610Z,95735
2018-01-03T14:08:27.288Z,95749
2018-01-03T14:10:53.953Z,95747
2018-01-03T14:13:20.641Z,95761
2018-01-03T14:15:47.294Z,95757
2018-01-03T14:18:13.965Z,95761
2018-01-03T14:20:41.431Z,95779
2018-01-03T14:23:08.839Z,95795
2018-01-03T14:25:35.496Z,95813
2018-01-03T14:28:02.221Z,95822
2018-01-03T14:30:28.853Z,95825
2018-01-03T14:32:55.549Z,95835
2018-01-03T14:35:22.244Z,95829
2018-01-03T14:37:48.931Z,95827
2018-01-03T14:40:15.590Z,95828
2018-01-03T14:42:43.083Z,95826
2018-01-03T14:45:09.835Z,95830
2018-01-03T14:47:36.501Z,95826
2018-01-03T14:50:03.231Z,95825
2018-01-03T14:52:30.734Z,95830
2018-01-03T14:54:58.145Z,95836
2018-01-03T14:57:24.988Z,95837
2018-01-03T14:59:51.659Z,95846
2018-01-03T15:02:18.387Z,95877
2018-01-03T15:04:45.026Z,95866
2018-01-03T15:07:11.678Z,95853
2018-01-03T15:09:39.802Z,95855
2018-01-03T15:12:08.202Z,95868
2018-01-03T15:14:36.924Z,95886
2018-01-03T15:17:05.360Z,95892
2018-01-03T15:19:32.105Z,95910
2018-01-03T15:21:58.904Z,95893
2018-01-03T15:24:26.208Z,95872
2018-01-03T15:26:53.455Z,95892
2018-01-03T15:29:20.558Z,95897
2018-01-03T15:31:47.282Z,95895
2018-01-03T15:34:13.938Z,95893
2018-01-03T15:36:40.590Z,95890
2018-01-03T15:39:07.313Z,95892
2018-01-03T15:41:33.965Z,95890
2018-01-03T15:44:00.627Z,95866
2018-01-03T15:46:27.293Z,95866
2018-01-03T15:48:54.222Z,95868
2018-01-03T15:51:20.878Z,95868
2018-01-03T15:53:47.629Z,95862
2018-01-03T15:56:14.300Z,95855
2018-01-03T15:58:40.948Z,95844
2018-01-03T16:01:07.635Z,95878
2018-01-03T16:03:34.313Z,95871
2018-01-03T16:06:01.692Z,95886
2018-01-03T16:08:28.802Z,95889
2018-01-03T16:10:55.587Z,95865
2018-01-03T16:13:22.247Z,95860
2018-01-03T16:15:48.960Z,95856
2018-01-03T16:18:16.335Z,95845
2018-01-03T16:20:43.070Z,95854
2018-01-03T16:23:10.485Z,95863
2018-01-03T16:25:37.209Z,95858
2018-01-03T16:28:03.850Z,95868
2018-01-03T16:30:30.535Z,95871
2018-01-03T16:32:57.250Z,95869
2018-01-03T16:35:23.921Z,95879
2018-01-03T16:37:50.615Z,95880
2018-01-03T16:40:17.316Z,95911
2018-01-03T16:42:44.733Z,95908
2018-01-03T16:45:12.165Z,95936
2018-01-03T16:47:38.854Z,95923
2018-01-03T16:50:06.332Z,95923
2018-01-03T16:52:39.156Z,95929
2018-01-03T16:55:05.805Z,95929
2018-01-03T16:57:32.506Z,95927
2018-01-03T16:59:59.203Z,95917
2018-01-03T17:02:25.886Z,95935
2018-01-03T17:04:52.540Z,95937
2018-01-03T17:07:19.519Z,95927
2018-01-03T17:09:46.182Z,95910
2018-01-03T17:12:12.863Z,95904
2018-01-03T17:14:39.557Z,95900
2018-01-03T17:17:06.230Z,95899
2018-01-03T17:19:32.908Z,95913
2018-01-03T17:22:00.333Z,95906
2018-01-03T17:24:27.013Z,95911
2018-01-03T17:26:54.389Z,95921
2018-01-03T17:29:21.071Z,95925
2018-01-03T17:31:47.839Z,95909
2018-01-03T17:34:14.490Z,95926
2018-01-03T17:36:41.201Z,95935
2018-01-03T17:39:07.945Z,95944
2018-01-03T17:41:34.624Z,95959
2018-01-03T17:44:01.302Z,95966
2018-01-03T17:46:27.968Z,95981
2018-01-03T17:48:54.635Z,95975
2018-01-03T17:51:21.322Z,95993
2018-01-03T17:53:48.066Z,96000
2018-01-03T17:56:14.798Z,95997
2018-01-03T17:58:42.305Z,95997
2018-01-03T18:01:08.955Z,96020
2018-01-03T18:03:35.679Z,96011
2018-01-03T18:06:02.452Z,96024
2018-01-03T18:08:29.078Z,96031
2018-01-03T18:10:55.732Z,96032
2018-01-03T18:13:22.386Z,96026
2018-01-03T18:15:49.085Z,96043
2018-01-03T18:18:15.723Z,96050
2018-01-03T18:20:42.429Z,96041
2018-01-03T18:23:09.944Z,96042
2018-01-03T18:25:36.653Z,96060
2018-01-03T18:28:04.127Z,96073
2018-01-03T18:30:30.772Z,96082
2018-01-03T18:32:57.440Z,96096
2018-01-03T18:35:24.119Z,96103
2018-01-03T18:37:50.974Z,96108
2018-01-03T18:40:17.686Z,96121
2018-01-03T18:42:44.411Z,96124
2018-01-03T18:45:11.068Z,96133
2018-01-03T18:47:37.717Z,96112
2018-01-03T18:50:04.402Z,96127
2018-01-03T18:52:31.789Z,96115
2018-01-03T18:54:58.470Z,96123
2018-01-03T18:57:25.161Z,96119
2018-01-03T18:59:51.818Z,96127
2018-01-03T19:02:18.486Z,96135
2018-01-03T19:04:45.220Z,96122
2018-01-03T19:07:11.870Z,96111
2018-01-03T19:09:39.376Z,96114
2018-01-03T19:12:06.861Z,96116
2018-01-03T19:14:33.524Z,96117
2018-01-03T19:17:00.894Z,96128
2018-01-03T19:19:27.659Z,96112
2018-01-03T19:21:54.308Z,96125
2018-01-03T19:24:21.004Z,96140
2018-01-03T19:26:47.761Z,96141
2018-01-03T19:29:14.450Z,96153
2018-01-03T19:31:41.881Z,96145
2018-01-03T19:34:08.560Z,96142
2018-01-03T19:36:35.960Z,96139
2018-01-03T19:39:02.792Z,96142
2018-01-03T19:41:29.482Z,96129
2018-01-03T19:43:56.156Z,96122
2018-01-03T19:46:23.551Z,96115
2018-01-03T19:48:50.236Z,96122
2018-01-03T19:51:17.659Z,96128
2018-01-03T19:53:44.326Z,96125
2018-01-03T19:56:11.001Z,96115
2018-01-03T19:58:38.398Z,96113
2018-01-03T20:01:05.091Z,96108
2018-01-03T20:03:32.541Z,96119
2018-01-03T20:05:59.219Z,96117
2018-01-03T20:08:26.638Z,96125
2018-01-03T20:10:53.351Z,96126
2018-01-03T20:13:20.054Z,96120
2018-01-03T20:15:47.483Z,96136
2018-01-03T20:18:14.153Z,96150
2018-01-03T20:20:41.565Z,96147
2018-01-03T20:23:08.230Z,96135
2018-01-03T20:25:34.917Z,96154
2018-01-03T20:28:02.347Z,96141
2018-01-03T20:30:29.016Z,96144
2018-01-03T20:32:56.453Z,96141
2018-01-03T20:35:23.208Z,96136
2018-01-03T20:37:50.638Z,96139
2018-01-03T20:40:17.305Z,96154
2018-01-03T20:42:44.004Z,96153
2018-01-03T20:45:10.660Z,96160
2018-01-03T20:47:37.325Z,96159
2018-01-03T20:50:04.022Z,96154
2018-01-03T20:52:30.948Z,96153
2018-01-03T20:54:58.352Z,96168
2018-01-03T20:57:25.035Z,96171
2018-01-03T20:59:54.347Z,96171
2018-01-03T21:02:21.770Z,96181
2018-01-03T21:04:48.453Z,96189
2018-01-03T21:07:15.849Z,96198
2018-01-03T21:09:42.606Z,96200
2018-01-03T21:12:09.404Z,96200
2018-01-03T21:14:37.752Z,96217
2018-01-03T21:17:04.411Z,96221
2018-01-03T21:19:31.218Z,96217
2018-01-03T21:21:58.617Z,96223
2018-01-03T21:24:26.052Z,96219
2018-01-03T21:26:52.831Z,96218
2018-01-03T21:29:20.279Z,96217
2018-01-03T21:31:46.950Z,96227
2018-01-03T21:34:14.436Z,96234
2018-01-03T21:36:41.165Z,96224
2018-01-03T21:39:08.756Z,96227
2018-01-03T21:41:35.449Z,96239
2018-01-03T21:44:02.877Z,96235
2018-01-03T21:46:29.638Z,96223
2018-01-03T21:48:57.172Z,96233
2018-01-03T21:51:23.927Z,96231
2018-01-03T21:53:50.612Z,96240
2018-01-03T21:56:18.057Z,96239
2018-01-03T21:58:46.202Z,96219
2018-01-03T22:01:12.870Z,96229
2018-01-03T22:03:39.564Z,96241
2018-01-03T22:06:06.232Z,96237
2018-01-03T22:08:32.912Z,96247
2018-01-03T22:11:00.349Z,96248
2018-01-03T22:13:27.032Z,96249
2018-01-03T22:15:53.675Z,96234
2018-01-03T22:18:20.370Z,96233
2018-01-03T22:20:47.022Z,96239
2018-01-03T22:23:13.950Z,96245
2018-01-03T22:25:40.624Z,96241
2018-01-03T22:28:07.271Z,96234
2018-01-03T22:30:34.666Z,96240
2018-01-03T22:33:01.431Z,96247
2018-01-03T22:35:28.168Z,96239
2018-01-03T22:37:54.807Z,96236
2018-01-03T22:40:21.570Z,96222
2018-01-03T22:42:49.031Z,96223
2018-01-03T22:45:15.701Z,96220
2018-01-03T22:47:42.412Z,96223
2018-01-03T22:50:09.028Z,96219
2018-01-03T22:52:35.673Z,96212
2018-01-03T22:55:02.346Z,96214
2018-01-03T22:57:28.994Z,96224
2018-01-03T22:59:55.681Z,96219
2018-01-03T23:02:22.373Z,96230
2018-01-03T23:04:49.073Z,96225
2018-01-03T23:07:15.714Z,96226
2018-01-03T23:09:42.418Z,96225
2018-01-03T23:12:09.136Z,96240
2018-01-03T23:14:35.780Z,96239
2018-01-03T23:17:02.469Z,96240
2018-01-03T23:19:29.905Z,96238
2018-01-03T23:21:56.616Z,96236
2018-01-03T23:24:23.323Z,96236
2018-01-03T23:26:50.718Z,96241
2018-01-03T23:29:17.382Z,96237
2018-01-03T23:31:44.069Z,96236
2018-01-03T23:34:11.470Z,96233
2018-01-03T23:36:38.125Z,96225
2018-01-03T23:39:04.804Z,96241
2018-01-03T23:41:32.191Z,96243
2018-01-03T23:43:58.833Z,96252
2018-01-03T23:46:25.498Z,96248
2018-01-03T23:48:52.155Z,96254
2018-01-03T23:51:18.823Z,96256
2018-01-03T23:53:45.497Z,96252
2018-01-03T23:56:12.145Z,96257
2018-01-03T23:58:38.822Z,96261
